sensor_id;sensor_type;location;lat;lon;timestamp;P1;durP1;ratioP1;P2;durP2;ratioP2
7729;SDS011;3908;52.310;7.230;2024-02-14T00:00:26;23.20;;;21.30;;
7729;SDS011;3908;52.310;7.230;2024-02-14T00:03:15;23.50;;;22.07;;
7729;SDS011;3908;52.310;7.230;2024-02-14T00:06:03;30.73;;;29.03;;
7729;SDS011;3908;52.310;7.230;2024-02-14T00:08:51;32.13;;;30.03;;
7729;SDS011;3908;52.310;7.230;2024-02-14T00:11:38;26.80;;;25.07;;
7729;SDS011;3908;52.310;7.230;2024-02-14T00:14:25;20.70;;;19.47;;
7729;SDS011;3908;52.310;7.230;2024-02-14T00:17:12;17.90;;;16.53;;
7729;SDS011;3908;52.310;7.230;2024-02-14T00:20:00;16.03;;;14.60;;
7729;SDS011;3908;52.310;7.230;2024-02-14T00:22:49;14.33;;;13.43;;
7729;SDS011;3908;52.310;7.230;2024-02-14T00:25:36;12.50;;;11.60;;
7729;SDS011;3908;52.310;7.230;2024-02-14T00:28:24;13.07;;;12.00;;
7729;SDS011;3908;52.310;7.230;2024-02-14T00:31:12;11.63;;;10.53;;
7729;SDS011;3908;52.310;7.230;2024-02-14T00:33:59;11.87;;;10.77;;
7729;SDS011;3908;52.310;7.230;2024-02-14T00:36:47;11.77;;;10.67;;
7729;SDS011;3908;52.310;7.230;2024-02-14T00:39:34;11.03;;;10.13;;
7729;SDS011;3908;52.310;7.230;2024-02-14T00:42:21;12.23;;;11.00;;
7729;SDS011;3908;52.310;7.230;2024-02-14T00:45:08;14.40;;;10.27;;
7729;SDS011;3908;52.310;7.230;2024-02-14T00:47:56;12.83;;;11.57;;
7729;SDS011;3908;52.310;7.230;2024-02-14T00:50:43;13.20;;;11.97;;
7729;SDS011;3908;52.310;7.230;2024-02-14T00:53:31;16.23;;;14.60;;
7729;SDS011;3908;52.310;7.230;2024-02-14T00:56:18;18.93;;;17.03;;
7729;SDS011;3908;52.310;7.230;2024-02-14T00:59:06;23.13;;;21.57;;
7729;SDS011;3908;52.310;7.230;2024-02-14T01:01:53;21.50;;;20.17;;
7729;SDS011;3908;52.310;7.230;2024-02-14T01:04:40;25.17;;;23.47;;
7729;SDS011;3908;52.310;7.230;2024-02-14T01:07:27;26.60;;;24.43;;
7729;SDS011;3908;52.310;7.230;2024-02-14T01:10:16;24.03;;;22.50;;
7729;SDS011;3908;52.310;7.230;2024-02-14T01:13:03;24.07;;;22.50;;
7729;SDS011;3908;52.310;7.230;2024-02-14T01:15:51;23.67;;;21.87;;
7729;SDS011;3908;52.310;7.230;2024-02-14T01:18:38;22.70;;;21.00;;
7729;SDS011;3908;52.310;7.230;2024-02-14T01:21:26;22.43;;;20.47;;
7729;SDS011;3908;52.310;7.230;2024-02-14T01:24:13;22.87;;;21.00;;
7729;SDS011;3908;52.310;7.230;2024-02-14T01:27:01;17.80;;;16.17;;
7729;SDS011;3908;52.310;7.230;2024-02-14T01:29:49;16.60;;;15.43;;
7729;SDS011;3908;52.310;7.230;2024-02-14T01:32:36;15.90;;;14.53;;
7729;SDS011;3908;52.310;7.230;2024-02-14T01:35:24;16.00;;;14.57;;
7729;SDS011;3908;52.310;7.230;2024-02-14T01:38:12;17.10;;;15.83;;
7729;SDS011;3908;52.310;7.230;2024-02-14T01:41:02;15.80;;;14.47;;
7729;SDS011;3908;52.310;7.230;2024-02-14T01:43:50;16.73;;;15.30;;
7729;SDS011;3908;52.310;7.230;2024-02-14T01:46:38;16.53;;;14.93;;
7729;SDS011;3908;52.310;7.230;2024-02-14T01:49:25;17.80;;;16.37;;
7729;SDS011;3908;52.310;7.230;2024-02-14T01:52:13;17.23;;;15.90;;
7729;SDS011;3908;52.310;7.230;2024-02-14T01:55:01;16.87;;;15.30;;
7729;SDS011;3908;52.310;7.230;2024-02-14T01:57:52;18.27;;;16.67;;
7729;SDS011;3908;52.310;7.230;2024-02-14T02:00:41;19.77;;;17.93;;
7729;SDS011;3908;52.310;7.230;2024-02-14T02:03:28;17.80;;;16.43;;
7729;SDS011;3908;52.310;7.230;2024-02-14T02:06:15;19.80;;;18.20;;
7729;SDS011;3908;52.310;7.230;2024-02-14T02:09:02;22.40;;;20.80;;
7729;SDS011;3908;52.310;7.230;2024-02-14T02:11:50;22.07;;;20.47;;
7729;SDS011;3908;52.310;7.230;2024-02-14T02:14:39;23.57;;;21.90;;
7729;SDS011;3908;52.310;7.230;2024-02-14T02:17:28;23.27;;;21.47;;
7729;SDS011;3908;52.310;7.230;2024-02-14T02:20:15;28.27;;;26.40;;
7729;SDS011;3908;52.310;7.230;2024-02-14T02:23:05;26.07;;;24.30;;
7729;SDS011;3908;52.310;7.230;2024-02-14T02:25:55;26.77;;;24.80;;
7729;SDS011;3908;52.310;7.230;2024-02-14T02:28:42;32.00;;;29.97;;
7729;SDS011;3908;52.310;7.230;2024-02-14T02:31:29;29.53;;;27.60;;
7729;SDS011;3908;52.310;7.230;2024-02-14T02:34:16;30.63;;;28.60;;
7729;SDS011;3908;52.310;7.230;2024-02-14T02:37:03;31.73;;;29.63;;
7729;SDS011;3908;52.310;7.230;2024-02-14T02:39:54;34.37;;;32.20;;
7729;SDS011;3908;52.310;7.230;2024-02-14T02:42:41;35.80;;;33.50;;
7729;SDS011;3908;52.310;7.230;2024-02-14T02:45:28;34.77;;;32.43;;
7729;SDS011;3908;52.310;7.230;2024-02-14T02:48:15;39.10;;;36.50;;
7729;SDS011;3908;52.310;7.230;2024-02-14T02:51:03;35.50;;;33.17;;
7729;SDS011;3908;52.310;7.230;2024-02-14T02:53:51;41.03;;;38.47;;
7729;SDS011;3908;52.310;7.230;2024-02-14T02:56:40;40.87;;;38.00;;
7729;SDS011;3908;52.310;7.230;2024-02-14T02:59:27;40.53;;;37.60;;
7729;SDS011;3908;52.310;7.230;2024-02-14T03:02:15;38.90;;;36.40;;
7729;SDS011;3908;52.310;7.230;2024-02-14T03:05:02;38.70;;;35.97;;
7729;SDS011;3908;52.310;7.230;2024-02-14T03:07:51;36.40;;;33.90;;
7729;SDS011;3908;52.310;7.230;2024-02-14T03:10:39;37.97;;;35.23;;
7729;SDS011;3908;52.310;7.230;2024-02-14T03:13:28;37.57;;;35.10;;
7729;SDS011;3908;52.310;7.230;2024-02-14T03:16:15;42.50;;;39.67;;
7729;SDS011;3908;52.310;7.230;2024-02-14T03:19:02;40.87;;;38.27;;
7729;SDS011;3908;52.310;7.230;2024-02-14T03:21:50;38.53;;;36.23;;
7729;SDS011;3908;52.310;7.230;2024-02-14T03:24:37;50.13;;;47.23;;
7729;SDS011;3908;52.310;7.230;2024-02-14T03:27:24;52.40;;;49.50;;
7729;SDS011;3908;52.310;7.230;2024-02-14T03:30:14;46.77;;;44.07;;
7729;SDS011;3908;52.310;7.230;2024-02-14T03:33:01;48.43;;;45.63;;
7729;SDS011;3908;52.310;7.230;2024-02-14T03:35:49;53.97;;;50.70;;
7729;SDS011;3908;52.310;7.230;2024-02-14T03:38:36;59.03;;;55.83;;
7729;SDS011;3908;52.310;7.230;2024-02-14T03:41:25;58.17;;;54.87;;
7729;SDS011;3908;52.310;7.230;2024-02-14T03:44:13;54.10;;;51.27;;
7729;SDS011;3908;52.310;7.230;2024-02-14T03:47:01;65.70;;;62.50;;
7729;SDS011;3908;52.310;7.230;2024-02-14T03:49:49;57.23;;;54.20;;
7729;SDS011;3908;52.310;7.230;2024-02-14T03:52:37;64.57;;;61.33;;
7729;SDS011;3908;52.310;7.230;2024-02-14T03:55:24;55.70;;;52.87;;
7729;SDS011;3908;52.310;7.230;2024-02-14T03:58:11;55.43;;;52.57;;
7729;SDS011;3908;52.310;7.230;2024-02-14T04:01:01;56.73;;;53.37;;
7729;SDS011;3908;52.310;7.230;2024-02-14T04:03:49;49.83;;;47.27;;
7729;SDS011;3908;52.310;7.230;2024-02-14T04:06:37;55.40;;;52.37;;
7729;SDS011;3908;52.310;7.230;2024-02-14T04:09:24;60.90;;;57.80;;
7729;SDS011;3908;52.310;7.230;2024-02-14T04:12:11;48.73;;;46.17;;
7729;SDS011;3908;52.310;7.230;2024-02-14T04:14:59;39.77;;;37.67;;
7729;SDS011;3908;52.310;7.230;2024-02-14T04:17:46;36.03;;;34.10;;
7729;SDS011;3908;52.310;7.230;2024-02-14T04:20:35;44.97;;;42.60;;
7729;SDS011;3908;52.310;7.230;2024-02-14T04:23:22;38.13;;;36.03;;
7729;SDS011;3908;52.310;7.230;2024-02-14T04:26:17;39.43;;;37.23;;
7729;SDS011;3908;52.310;7.230;2024-02-14T04:29:05;29.47;;;27.93;;
7729;SDS011;3908;52.310;7.230;2024-02-14T04:31:54;31.80;;;30.00;;
7729;SDS011;3908;52.310;7.230;2024-02-14T04:34:41;30.30;;;28.63;;
7729;SDS011;3908;52.310;7.230;2024-02-14T04:37:30;29.13;;;27.53;;
7729;SDS011;3908;52.310;7.230;2024-02-14T04:40:18;32.77;;;31.10;;
7729;SDS011;3908;52.310;7.230;2024-02-14T04:43:06;29.37;;;27.77;;
7729;SDS011;3908;52.310;7.230;2024-02-14T04:45:53;28.40;;;26.77;;
7729;SDS011;3908;52.310;7.230;2024-02-14T04:48:40;27.37;;;25.83;;
7729;SDS011;3908;52.310;7.230;2024-02-14T04:51:27;30.73;;;29.10;;
7729;SDS011;3908;52.310;7.230;2024-02-14T04:54:16;25.27;;;23.80;;
7729;SDS011;3908;52.310;7.230;2024-02-14T04:57:03;28.17;;;26.43;;
7729;SDS011;3908;52.310;7.230;2024-02-14T04:59:50;29.93;;;28.33;;
7729;SDS011;3908;52.310;7.230;2024-02-14T05:02:37;38.53;;;36.53;;
7729;SDS011;3908;52.310;7.230;2024-02-14T05:05:25;36.53;;;34.70;;
7729;SDS011;3908;52.310;7.230;2024-02-14T05:08:13;35.50;;;33.63;;
7729;SDS011;3908;52.310;7.230;2024-02-14T05:11:02;32.57;;;30.90;;
7729;SDS011;3908;52.310;7.230;2024-02-14T05:13:50;32.30;;;30.60;;
7729;SDS011;3908;52.310;7.230;2024-02-14T05:16:38;31.83;;;30.13;;
7729;SDS011;3908;52.310;7.230;2024-02-14T05:19:25;36.80;;;35.00;;
7729;SDS011;3908;52.310;7.230;2024-02-14T05:22:12;34.23;;;32.50;;
7729;SDS011;3908;52.310;7.230;2024-02-14T05:25:01;32.77;;;31.03;;
7729;SDS011;3908;52.310;7.230;2024-02-14T05:27:50;36.17;;;34.17;;
7729;SDS011;3908;52.310;7.230;2024-02-14T05:30:38;37.23;;;35.33;;
7729;SDS011;3908;52.310;7.230;2024-02-14T05:33:25;37.50;;;35.63;;
7729;SDS011;3908;52.310;7.230;2024-02-14T05:36:12;34.93;;;33.10;;
7729;SDS011;3908;52.310;7.230;2024-02-14T05:38:59;35.57;;;33.67;;
7729;SDS011;3908;52.310;7.230;2024-02-14T05:41:46;36.03;;;34.03;;
7729;SDS011;3908;52.310;7.230;2024-02-14T05:44:36;36.57;;;34.47;;
7729;SDS011;3908;52.310;7.230;2024-02-14T05:47:23;36.67;;;34.53;;
7729;SDS011;3908;52.310;7.230;2024-02-14T05:50:10;38.20;;;35.90;;
7729;SDS011;3908;52.310;7.230;2024-02-14T05:52:58;35.77;;;33.77;;
7729;SDS011;3908;52.310;7.230;2024-02-14T05:55:45;39.10;;;36.73;;
7729;SDS011;3908;52.310;7.230;2024-02-14T05:58:32;37.43;;;35.37;;
7729;SDS011;3908;52.310;7.230;2024-02-14T06:01:23;36.47;;;34.13;;
7729;SDS011;3908;52.310;7.230;2024-02-14T06:04:10;37.27;;;35.17;;
7729;SDS011;3908;52.310;7.230;2024-02-14T06:06:57;35.63;;;33.37;;
7729;SDS011;3908;52.310;7.230;2024-02-14T06:09:45;32.93;;;30.87;;
7729;SDS011;3908;52.310;7.230;2024-02-14T06:12:32;29.10;;;27.13;;
7729;SDS011;3908;52.310;7.230;2024-02-14T06:15:19;28.87;;;26.83;;
7729;SDS011;3908;52.310;7.230;2024-02-14T06:18:07;28.67;;;26.77;;
7729;SDS011;3908;52.310;7.230;2024-02-14T06:20:55;27.57;;;25.67;;
7729;SDS011;3908;52.310;7.230;2024-02-14T06:23:42;27.50;;;25.47;;
7729;SDS011;3908;52.310;7.230;2024-02-14T06:26:32;29.40;;;27.50;;
7729;SDS011;3908;52.310;7.230;2024-02-14T06:29:19;32.87;;;30.37;;
7729;SDS011;3908;52.310;7.230;2024-02-14T06:32:07;32.63;;;30.47;;
7729;SDS011;3908;52.310;7.230;2024-02-14T06:34:55;32.37;;;30.37;;
7729;SDS011;3908;52.310;7.230;2024-02-14T06:37:42;33.73;;;31.43;;
7729;SDS011;3908;52.310;7.230;2024-02-14T06:40:29;34.37;;;31.87;;
7729;SDS011;3908;52.310;7.230;2024-02-14T06:43:16;37.27;;;34.90;;
7729;SDS011;3908;52.310;7.230;2024-02-14T06:46:03;38.77;;;35.67;;
7729;SDS011;3908;52.310;7.230;2024-02-14T06:48:51;33.13;;;31.00;;
7729;SDS011;3908;52.310;7.230;2024-02-14T06:51:41;36.83;;;34.13;;
7729;SDS011;3908;52.310;7.230;2024-02-14T06:54:28;34.47;;;32.00;;
7729;SDS011;3908;52.310;7.230;2024-02-14T06:57:15;34.10;;;31.60;;
7729;SDS011;3908;52.310;7.230;2024-02-14T07:00:03;34.10;;;31.70;;
7729;SDS011;3908;52.310;7.230;2024-02-14T07:02:52;35.70;;;33.27;;
7729;SDS011;3908;52.310;7.230;2024-02-14T07:05:39;38.10;;;35.53;;
7729;SDS011;3908;52.310;7.230;2024-02-14T07:08:28;41.57;;;38.60;;
7729;SDS011;3908;52.310;7.230;2024-02-14T07:11:16;38.47;;;35.57;;
7729;SDS011;3908;52.310;7.230;2024-02-14T07:14:03;42.23;;;39.27;;
7729;SDS011;3908;52.310;7.230;2024-02-14T07:16:50;42.67;;;39.33;;
7729;SDS011;3908;52.310;7.230;2024-02-14T07:19:37;36.47;;;33.87;;
7729;SDS011;3908;52.310;7.230;2024-02-14T07:22:25;37.50;;;34.90;;
7729;SDS011;3908;52.310;7.230;2024-02-14T07:25:13;36.60;;;33.90;;
7729;SDS011;3908;52.310;7.230;2024-02-14T07:28:00;39.00;;;36.50;;
7729;SDS011;3908;52.310;7.230;2024-02-14T07:30:47;40.33;;;37.43;;
7729;SDS011;3908;52.310;7.230;2024-02-14T07:33:35;44.40;;;41.50;;
7729;SDS011;3908;52.310;7.230;2024-02-14T07:36:22;39.70;;;36.87;;
7729;SDS011;3908;52.310;7.230;2024-02-14T07:39:09;44.77;;;40.80;;
7729;SDS011;3908;52.310;7.230;2024-02-14T07:41:58;41.47;;;38.57;;
7729;SDS011;3908;52.310;7.230;2024-02-14T07:44:45;44.10;;;41.00;;
7729;SDS011;3908;52.310;7.230;2024-02-14T07:47:32;45.67;;;42.53;;
7729;SDS011;3908;52.310;7.230;2024-02-14T07:50:19;47.23;;;44.13;;
7729;SDS011;3908;52.310;7.230;2024-02-14T07:53:06;48.30;;;45.00;;
7729;SDS011;3908;52.310;7.230;2024-02-14T07:55:54;49.53;;;46.40;;
7729;SDS011;3908;52.310;7.230;2024-02-14T07:58:42;48.77;;;45.60;;
7729;SDS011;3908;52.310;7.230;2024-02-14T08:01:29;49.40;;;46.00;;
7729;SDS011;3908;52.310;7.230;2024-02-14T08:04:17;48.20;;;45.13;;
7729;SDS011;3908;52.310;7.230;2024-02-14T08:07:04;48.63;;;45.43;;
7729;SDS011;3908;52.310;7.230;2024-02-14T08:09:52;45.10;;;42.20;;
7729;SDS011;3908;52.310;7.230;2024-02-14T08:12:39;48.53;;;45.57;;
7729;SDS011;3908;52.310;7.230;2024-02-14T08:15:27;48.30;;;44.83;;
7729;SDS011;3908;52.310;7.230;2024-02-14T08:18:14;49.37;;;46.27;;
7729;SDS011;3908;52.310;7.230;2024-02-14T08:21:01;44.67;;;41.70;;
7729;SDS011;3908;52.310;7.230;2024-02-14T08:23:49;44.00;;;41.30;;
7729;SDS011;3908;52.310;7.230;2024-02-14T08:26:36;45.47;;;42.47;;
7729;SDS011;3908;52.310;7.230;2024-02-14T08:29:24;47.07;;;44.07;;
7729;SDS011;3908;52.310;7.230;2024-02-14T08:32:12;42.90;;;40.40;;
7729;SDS011;3908;52.310;7.230;2024-02-14T08:35:00;45.90;;;43.20;;
7729;SDS011;3908;52.310;7.230;2024-02-14T08:37:47;45.03;;;42.27;;
7729;SDS011;3908;52.310;7.230;2024-02-14T08:40:34;45.77;;;42.87;;
7729;SDS011;3908;52.310;7.230;2024-02-14T08:43:22;49.17;;;46.13;;
7729;SDS011;3908;52.310;7.230;2024-02-14T08:46:11;47.37;;;44.60;;
7729;SDS011;3908;52.310;7.230;2024-02-14T08:49:00;45.17;;;42.37;;
7729;SDS011;3908;52.310;7.230;2024-02-14T08:51:47;50.57;;;47.60;;
7729;SDS011;3908;52.310;7.230;2024-02-14T08:54:35;45.47;;;42.67;;
7729;SDS011;3908;52.310;7.230;2024-02-14T08:57:22;47.97;;;44.97;;
7729;SDS011;3908;52.310;7.230;2024-02-14T09:00:10;46.57;;;43.80;;
7729;SDS011;3908;52.310;7.230;2024-02-14T09:02:58;46.80;;;43.90;;
7729;SDS011;3908;52.310;7.230;2024-02-14T09:05:48;49.27;;;46.27;;
7729;SDS011;3908;52.310;7.230;2024-02-14T09:08:35;48.33;;;45.40;;
7729;SDS011;3908;52.310;7.230;2024-02-14T09:11:23;45.00;;;41.83;;
7729;SDS011;3908;52.310;7.230;2024-02-14T09:14:11;49.20;;;46.40;;
7729;SDS011;3908;52.310;7.230;2024-02-14T09:16:58;48.10;;;45.17;;
7729;SDS011;3908;52.310;7.230;2024-02-14T09:19:45;51.17;;;48.17;;
7729;SDS011;3908;52.310;7.230;2024-02-14T09:22:35;49.07;;;46.03;;
7729;SDS011;3908;52.310;7.230;2024-02-14T09:25:23;52.87;;;49.63;;
7729;SDS011;3908;52.310;7.230;2024-02-14T09:28:10;45.77;;;42.87;;
7729;SDS011;3908;52.310;7.230;2024-02-14T09:30:59;52.40;;;49.20;;
7729;SDS011;3908;52.310;7.230;2024-02-14T09:33:46;47.57;;;44.57;;
7729;SDS011;3908;52.310;7.230;2024-02-14T09:36:34;46.87;;;44.00;;
7729;SDS011;3908;52.310;7.230;2024-02-14T09:39:23;50.57;;;47.47;;
7729;SDS011;3908;52.310;7.230;2024-02-14T09:42:11;51.47;;;48.17;;
7729;SDS011;3908;52.310;7.230;2024-02-14T09:45:00;47.43;;;44.47;;
7729;SDS011;3908;52.310;7.230;2024-02-14T09:47:47;51.80;;;48.70;;
7729;SDS011;3908;52.310;7.230;2024-02-14T09:50:35;51.67;;;48.60;;
7729;SDS011;3908;52.310;7.230;2024-02-14T09:53:23;49.17;;;46.07;;
7729;SDS011;3908;52.310;7.230;2024-02-14T09:56:12;51.60;;;48.53;;
7729;SDS011;3908;52.310;7.230;2024-02-14T09:59:00;47.20;;;44.27;;
7729;SDS011;3908;52.310;7.230;2024-02-14T10:01:48;50.67;;;47.33;;
7729;SDS011;3908;52.310;7.230;2024-02-14T10:04:37;46.73;;;43.83;;
7729;SDS011;3908;52.310;7.230;2024-02-14T10:07:25;48.07;;;44.97;;
7729;SDS011;3908;52.310;7.230;2024-02-14T10:10:13;50.57;;;47.37;;
7729;SDS011;3908;52.310;7.230;2024-02-14T10:13:04;49.10;;;45.70;;
7729;SDS011;3908;52.310;7.230;2024-02-14T10:15:53;48.80;;;45.50;;
7729;SDS011;3908;52.310;7.230;2024-02-14T10:18:41;48.37;;;45.07;;
7729;SDS011;3908;52.310;7.230;2024-02-14T10:21:28;46.90;;;43.90;;
7729;SDS011;3908;52.310;7.230;2024-02-14T10:24:18;46.10;;;42.93;;
7729;SDS011;3908;52.310;7.230;2024-02-14T10:27:06;42.10;;;38.83;;
7729;SDS011;3908;52.310;7.230;2024-02-14T10:29:57;45.53;;;42.37;;
7729;SDS011;3908;52.310;7.230;2024-02-14T10:32:44;40.90;;;38.50;;
7729;SDS011;3908;52.310;7.230;2024-02-14T10:35:33;40.70;;;38.27;;
7729;SDS011;3908;52.310;7.230;2024-02-14T10:38:22;42.90;;;40.33;;
7729;SDS011;3908;52.310;7.230;2024-02-14T10:41:11;43.87;;;41.27;;
7729;SDS011;3908;52.310;7.230;2024-02-14T10:43:59;43.43;;;40.83;;
7729;SDS011;3908;52.310;7.230;2024-02-14T10:46:48;40.67;;;38.37;;
7729;SDS011;3908;52.310;7.230;2024-02-14T10:49:38;46.57;;;43.73;;
7729;SDS011;3908;52.310;7.230;2024-02-14T10:52:30;47.47;;;44.50;;
7729;SDS011;3908;52.310;7.230;2024-02-14T10:55:18;45.97;;;43.27;;
7729;SDS011;3908;52.310;7.230;2024-02-14T10:58:08;48.43;;;45.33;;
7729;SDS011;3908;52.310;7.230;2024-02-14T11:00:57;48.20;;;45.30;;
7729;SDS011;3908;52.310;7.230;2024-02-14T11:03:46;47.03;;;44.03;;
7729;SDS011;3908;52.310;7.230;2024-02-14T11:06:43;49.60;;;46.67;;
7729;SDS011;3908;52.310;7.230;2024-02-14T11:09:31;47.07;;;44.23;;
7729;SDS011;3908;52.310;7.230;2024-02-14T11:12:22;46.17;;;43.37;;
7729;SDS011;3908;52.310;7.230;2024-02-14T11:15:11;43.93;;;41.30;;
7729;SDS011;3908;52.310;7.230;2024-02-14T11:18:03;42.27;;;39.87;;
7729;SDS011;3908;52.310;7.230;2024-02-14T11:20:54;46.70;;;44.03;;
7729;SDS011;3908;52.310;7.230;2024-02-14T11:23:52;45.90;;;43.40;;
7729;SDS011;3908;52.310;7.230;2024-02-14T11:26:45;48.30;;;45.27;;
7729;SDS011;3908;52.310;7.230;2024-02-14T11:29:34;49.10;;;46.17;;
7729;SDS011;3908;52.310;7.230;2024-02-14T11:32:22;48.00;;;45.33;;
7729;SDS011;3908;52.310;7.230;2024-02-14T11:35:11;52.43;;;49.50;;
7729;SDS011;3908;52.310;7.230;2024-02-14T11:38:00;50.20;;;47.27;;
7729;SDS011;3908;52.310;7.230;2024-02-14T11:40:49;45.13;;;42.47;;
7729;SDS011;3908;52.310;7.230;2024-02-14T11:43:36;47.87;;;45.13;;
7729;SDS011;3908;52.310;7.230;2024-02-14T11:46:24;47.33;;;44.63;;
7729;SDS011;3908;52.310;7.230;2024-02-14T11:49:14;44.33;;;41.83;;
7729;SDS011;3908;52.310;7.230;2024-02-14T11:52:02;46.77;;;44.07;;
7729;SDS011;3908;52.310;7.230;2024-02-14T11:54:51;45.33;;;42.67;;
7729;SDS011;3908;52.310;7.230;2024-02-14T11:57:42;42.93;;;40.33;;
7729;SDS011;3908;52.310;7.230;2024-02-14T12:00:29;46.67;;;43.73;;
7729;SDS011;3908;52.310;7.230;2024-02-14T12:03:16;46.83;;;44.00;;
7729;SDS011;3908;52.310;7.230;2024-02-14T12:06:05;47.57;;;44.70;;
7729;SDS011;3908;52.310;7.230;2024-02-14T12:08:52;47.43;;;44.53;;
7729;SDS011;3908;52.310;7.230;2024-02-14T12:11:43;47.20;;;44.03;;
7729;SDS011;3908;52.310;7.230;2024-02-14T12:14:32;49.17;;;45.97;;
7729;SDS011;3908;52.310;7.230;2024-02-14T12:17:20;49.67;;;46.37;;
7729;SDS011;3908;52.310;7.230;2024-02-14T12:20:08;52.10;;;48.50;;
7729;SDS011;3908;52.310;7.230;2024-02-14T12:22:59;49.27;;;45.93;;
7729;SDS011;3908;52.310;7.230;2024-02-14T12:25:46;46.80;;;43.80;;
7729;SDS011;3908;52.310;7.230;2024-02-14T12:28:36;47.73;;;44.03;;
7729;SDS011;3908;52.310;7.230;2024-02-14T12:31:23;46.90;;;43.77;;
7729;SDS011;3908;52.310;7.230;2024-02-14T12:34:11;45.70;;;42.63;;
7729;SDS011;3908;52.310;7.230;2024-02-14T12:36:58;45.87;;;42.23;;
7729;SDS011;3908;52.310;7.230;2024-02-14T12:39:46;47.17;;;43.43;;
7729;SDS011;3908;52.310;7.230;2024-02-14T12:42:33;46.03;;;42.93;;
7729;SDS011;3908;52.310;7.230;2024-02-14T12:45:22;44.60;;;41.53;;
7729;SDS011;3908;52.310;7.230;2024-02-14T12:48:10;43.97;;;40.83;;
7729;SDS011;3908;52.310;7.230;2024-02-14T12:50:59;45.10;;;41.67;;
7729;SDS011;3908;52.310;7.230;2024-02-14T12:53:46;44.60;;;41.10;;
7729;SDS011;3908;52.310;7.230;2024-02-14T12:56:33;44.20;;;41.10;;
7729;SDS011;3908;52.310;7.230;2024-02-14T12:59:20;44.63;;;41.40;;
7729;SDS011;3908;52.310;7.230;2024-02-14T13:02:09;40.27;;;37.53;;
7729;SDS011;3908;52.310;7.230;2024-02-14T13:04:56;45.33;;;42.23;;
7729;SDS011;3908;52.310;7.230;2024-02-14T13:07:44;43.53;;;40.87;;
7729;SDS011;3908;52.310;7.230;2024-02-14T13:10:32;37.87;;;35.47;;
7729;SDS011;3908;52.310;7.230;2024-02-14T13:13:19;40.60;;;37.80;;
7729;SDS011;3908;52.310;7.230;2024-02-14T13:16:06;39.43;;;36.83;;
7729;SDS011;3908;52.310;7.230;2024-02-14T13:18:55;37.93;;;35.40;;
7729;SDS011;3908;52.310;7.230;2024-02-14T13:21:42;40.37;;;37.50;;
7729;SDS011;3908;52.310;7.230;2024-02-14T13:24:31;40.70;;;38.00;;
7729;SDS011;3908;52.310;7.230;2024-02-14T13:27:18;45.13;;;42.13;;
7729;SDS011;3908;52.310;7.230;2024-02-14T13:30:07;43.40;;;40.67;;
7729;SDS011;3908;52.310;7.230;2024-02-14T13:32:54;40.67;;;38.07;;
7729;SDS011;3908;52.310;7.230;2024-02-14T13:35:43;44.20;;;41.10;;
7729;SDS011;3908;52.310;7.230;2024-02-14T13:38:30;42.70;;;40.10;;
7729;SDS011;3908;52.310;7.230;2024-02-14T13:41:18;41.83;;;39.17;;
7729;SDS011;3908;52.310;7.230;2024-02-14T13:44:06;41.87;;;39.13;;
7729;SDS011;3908;52.310;7.230;2024-02-14T13:46:53;39.13;;;36.33;;
7729;SDS011;3908;52.310;7.230;2024-02-14T13:49:41;41.50;;;38.90;;
7729;SDS011;3908;52.310;7.230;2024-02-14T13:52:29;41.07;;;38.43;;
7729;SDS011;3908;52.310;7.230;2024-02-14T13:55:18;41.23;;;38.73;;
7729;SDS011;3908;52.310;7.230;2024-02-14T13:58:05;42.87;;;40.50;;
7729;SDS011;3908;52.310;7.230;2024-02-14T14:00:55;40.30;;;37.80;;
7729;SDS011;3908;52.310;7.230;2024-02-14T14:03:44;40.30;;;37.70;;
7729;SDS011;3908;52.310;7.230;2024-02-14T14:06:33;41.23;;;38.83;;
7729;SDS011;3908;52.310;7.230;2024-02-14T14:09:22;40.33;;;37.93;;
7729;SDS011;3908;52.310;7.230;2024-02-14T14:12:09;39.50;;;37.30;;
7729;SDS011;3908;52.310;7.230;2024-02-14T14:14:56;36.93;;;34.73;;
7729;SDS011;3908;52.310;7.230;2024-02-14T14:17:44;38.83;;;36.63;;
7729;SDS011;3908;52.310;7.230;2024-02-14T14:20:31;36.37;;;34.33;;
7729;SDS011;3908;52.310;7.230;2024-02-14T14:23:18;36.07;;;34.10;;
7729;SDS011;3908;52.310;7.230;2024-02-14T14:26:07;36.60;;;34.57;;
7729;SDS011;3908;52.310;7.230;2024-02-14T14:28:54;36.03;;;34.00;;
7729;SDS011;3908;52.310;7.230;2024-02-14T14:31:42;34.63;;;32.63;;
7729;SDS011;3908;52.310;7.230;2024-02-14T14:34:29;33.83;;;32.13;;
7729;SDS011;3908;52.310;7.230;2024-02-14T14:37:17;30.80;;;29.20;;
7729;SDS011;3908;52.310;7.230;2024-02-14T14:40:05;32.50;;;30.63;;
7729;SDS011;3908;52.310;7.230;2024-02-14T14:42:55;32.80;;;31.03;;
7729;SDS011;3908;52.310;7.230;2024-02-14T14:45:42;31.33;;;29.50;;
7729;SDS011;3908;52.310;7.230;2024-02-14T14:48:30;28.40;;;26.87;;
7729;SDS011;3908;52.310;7.230;2024-02-14T14:51:17;26.83;;;25.50;;
7729;SDS011;3908;52.310;7.230;2024-02-14T14:54:06;23.90;;;22.63;;
7729;SDS011;3908;52.310;7.230;2024-02-14T14:56:55;29.03;;;27.27;;
7729;SDS011;3908;52.310;7.230;2024-02-14T14:59:43;28.70;;;27.23;;
7729;SDS011;3908;52.310;7.230;2024-02-14T15:02:31;26.63;;;25.27;;
7729;SDS011;3908;52.310;7.230;2024-02-14T15:05:18;26.27;;;25.00;;
7729;SDS011;3908;52.310;7.230;2024-02-14T15:08:07;27.53;;;26.17;;
7729;SDS011;3908;52.310;7.230;2024-02-14T15:10:54;24.87;;;23.63;;
7729;SDS011;3908;52.310;7.230;2024-02-14T15:13:42;24.77;;;23.43;;
7729;SDS011;3908;52.310;7.230;2024-02-14T15:16:32;26.13;;;24.83;;
7729;SDS011;3908;52.310;7.230;2024-02-14T15:19:19;26.87;;;25.53;;
7729;SDS011;3908;52.310;7.230;2024-02-14T15:22:07;24.83;;;23.60;;
7729;SDS011;3908;52.310;7.230;2024-02-14T15:24:54;26.37;;;25.07;;
7729;SDS011;3908;52.310;7.230;2024-02-14T15:27:41;22.67;;;21.57;;
7729;SDS011;3908;52.310;7.230;2024-02-14T15:30:39;22.63;;;21.33;;
7729;SDS011;3908;52.310;7.230;2024-02-14T15:33:46;22.83;;;21.70;;
7729;SDS011;3908;52.310;7.230;2024-02-14T15:36:33;21.73;;;20.53;;
7729;SDS011;3908;52.310;7.230;2024-02-14T15:39:20;21.90;;;20.80;;
7729;SDS011;3908;52.310;7.230;2024-02-14T15:42:07;23.47;;;22.23;;
7729;SDS011;3908;52.310;7.230;2024-02-14T15:44:56;21.17;;;20.07;;
7729;SDS011;3908;52.310;7.230;2024-02-14T15:47:43;20.00;;;19.00;;
7729;SDS011;3908;52.310;7.230;2024-02-14T15:50:32;21.70;;;20.60;;
7729;SDS011;3908;52.310;7.230;2024-02-14T15:53:19;20.53;;;19.53;;
7729;SDS011;3908;52.310;7.230;2024-02-14T15:56:06;21.13;;;20.13;;
7729;SDS011;3908;52.310;7.230;2024-02-14T15:58:55;22.47;;;21.37;;
7729;SDS011;3908;52.310;7.230;2024-02-14T16:01:42;23.17;;;21.90;;
7729;SDS011;3908;52.310;7.230;2024-02-14T16:04:29;22.87;;;21.77;;
7729;SDS011;3908;52.310;7.230;2024-02-14T16:07:17;26.60;;;24.93;;
7729;SDS011;3908;52.310;7.230;2024-02-14T16:10:05;23.23;;;21.97;;
7729;SDS011;3908;52.310;7.230;2024-02-14T16:12:53;19.90;;;18.83;;
7729;SDS011;3908;52.310;7.230;2024-02-14T16:15:40;21.50;;;20.40;;
7729;SDS011;3908;52.310;7.230;2024-02-14T16:18:28;22.10;;;20.87;;
7729;SDS011;3908;52.310;7.230;2024-02-14T16:21:15;20.40;;;19.30;;
7729;SDS011;3908;52.310;7.230;2024-02-14T16:24:04;22.87;;;21.67;;
7729;SDS011;3908;52.310;7.230;2024-02-14T16:26:52;24.70;;;23.50;;
7729;SDS011;3908;52.310;7.230;2024-02-14T16:29:39;24.83;;;23.50;;
7729;SDS011;3908;52.310;7.230;2024-02-14T16:32:26;27.20;;;25.87;;
7729;SDS011;3908;52.310;7.230;2024-02-14T16:35:13;26.73;;;25.43;;
7729;SDS011;3908;52.310;7.230;2024-02-14T16:38:00;25.07;;;23.77;;
7729;SDS011;3908;52.310;7.230;2024-02-14T16:40:49;24.23;;;23.00;;
7729;SDS011;3908;52.310;7.230;2024-02-14T16:43:36;23.87;;;22.60;;
7729;SDS011;3908;52.310;7.230;2024-02-14T16:46:24;23.90;;;22.70;;
7729;SDS011;3908;52.310;7.230;2024-02-14T16:49:11;24.23;;;22.93;;
7729;SDS011;3908;52.310;7.230;2024-02-14T16:51:58;23.53;;;22.33;;